Terminal Aerodrome Forecast
Issued by NWS

Home | Current Version | Previous Version | Text Only | Print | Product List | Glossary On
Versions: 1 2 3 4 5 6 7 8 9 10 11 12 13 14 15 16 17 18 19 20 21 22 23 24 25 26 27 28 29 30 31 32 33 34 35 36 37 38 39 40 41 42 43 44 45 46 47 48
000
FTUS45 KBOU 012320
TAFAPA
TAF
KAPA 012320Z 0200/0224 23011KT P6SM VCSH FEW080 SCT100 BKN130
     FM020300 20009KT P6SM FEW100 SCT140 BKN200
     FM020700 19010KT P6SM FEW140 SCT200
     FM021400 24008KT P6SM FEW120 SCT200
     FM022000 34008KT P6SM SCT080 BKN150
     FM022200 25007KT P6SM VCSH SCT070 BKN110=

USA.gov is the U.S. government's official web portal to all federal, state and local government web resources and services.